createdAt,value
2018-10-09T00:00:45.763Z,77.10
2018-10-09T00:03:14.548Z,77.42
2018-10-09T00:05:43.366Z,76.72
2018-10-09T00:08:12.227Z,77.33
2018-10-09T00:10:41.040Z,77.42
2018-10-09T00:13:09.812Z,77.38
2018-10-09T00:15:38.603Z,76.91
2018-10-09T00:18:07.339Z,76.60
2018-10-09T00:20:36.733Z,76.47
2018-10-09T00:23:05.895Z,76.78
2018-10-09T00:25:34.705Z,76.58
2018-10-09T00:28:03.594Z,76.50
2018-10-09T00:30:32.321Z,76.75
2018-10-09T00:33:01.180Z,76.47
2018-10-09T00:35:30.323Z,76.65
2018-10-09T00:37:59.158Z,77.01
2018-10-09T00:40:27.951Z,77.12
2018-10-09T00:42:56.820Z,77.10
2018-10-09T00:45:25.564Z,77.32
2018-10-09T00:47:54.754Z,77.61
2018-10-09T00:50:23.566Z,77.57
2018-10-09T00:52:52.534Z,77.51
2018-10-09T00:55:21.352Z,77.59
2018-10-09T00:57:52.398Z,77.21
2018-10-09T01:00:21.306Z,77.28
2018-10-09T01:02:50.133Z,77.14
2018-10-09T01:05:18.992Z,77.43
2018-10-09T01:07:48.402Z,77.08
2018-10-09T01:10:18.498Z,77.29
2018-10-09T01:12:47.408Z,77.38
2018-10-09T01:15:17.925Z,77.02
2018-10-09T01:17:47.470Z,77.24
2018-10-09T01:20:23.046Z,77.11
2018-10-09T01:22:52.821Z,77.15
2018-10-09T01:25:21.851Z,77.33
2018-10-09T01:27:52.274Z,78.00
2018-10-09T01:30:21.096Z,78.09
2018-10-09T01:32:50.023Z,78.07
2018-10-09T01:35:18.777Z,78.19
2018-10-09T01:37:47.632Z,77.97
2018-10-09T01:40:16.458Z,78.29
2018-10-09T01:42:45.367Z,78.69
2018-10-09T01:45:14.235Z,79.03
2018-10-09T01:47:43.142Z,79.30
2018-10-09T01:50:11.864Z,79.02
2018-10-09T01:52:40.737Z,79.15
2018-10-09T01:55:09.609Z,79.31
2018-10-09T01:57:38.388Z,79.01
2018-10-09T02:00:08.938Z,79.15
2018-10-09T02:02:37.695Z,79.13
2018-10-09T02:05:06.928Z,78.98
2018-10-09T02:07:35.652Z,78.80
2018-10-09T02:10:04.918Z,78.79
2018-10-09T02:12:33.729Z,78.65
2018-10-09T02:15:02.589Z,78.28
2018-10-09T02:17:31.358Z,78.96
2018-10-09T02:20:00.147Z,79.12
2018-10-09T02:22:28.895Z,79.38
2018-10-09T02:24:57.726Z,78.97
2018-10-09T02:27:26.871Z,79.13
2018-10-09T02:32:46.329Z,78.57
2018-10-09T02:35:15.111Z,78.82
2018-10-09T02:37:43.955Z,79.05
2018-10-09T02:40:12.837Z,78.97
2018-10-09T02:42:41.647Z,79.00
2018-10-09T02:45:10.581Z,78.79
2018-10-09T02:47:39.375Z,79.10
2018-10-09T02:50:08.222Z,79.21
2018-10-09T02:52:37.081Z,78.91
2018-10-09T02:55:05.911Z,79.18
2018-10-09T02:57:34.846Z,79.00
2018-10-09T03:00:03.790Z,78.85
2018-10-09T03:02:32.675Z,78.62
2018-10-09T03:05:01.523Z,78.80
2018-10-09T03:07:30.291Z,78.51
2018-10-09T03:09:59.129Z,78.64
2018-10-09T03:12:27.968Z,78.76
2018-10-09T03:14:56.992Z,79.49
2018-10-09T03:17:25.787Z,78.36
2018-10-09T03:19:54.523Z,78.72
2018-10-09T03:22:23.949Z,79.01
2018-10-09T03:24:52.849Z,79.43
2018-10-09T03:27:21.623Z,79.32
2018-10-09T03:29:50.442Z,78.89
2018-10-09T03:32:19.393Z,78.95
2018-10-09T03:34:48.333Z,78.70
2018-10-09T03:37:17.324Z,78.36
2018-10-09T03:39:46.126Z,78.34
2018-10-09T03:42:14.935Z,78.35
2018-10-09T03:44:45.604Z,78.16
2018-10-09T03:47:17.624Z,78.19
2018-10-09T03:49:46.531Z,77.94
2018-10-09T03:52:15.350Z,77.86
2018-10-09T03:54:44.227Z,78.12
2018-10-09T03:57:13.007Z,77.70
2018-10-09T03:59:41.829Z,77.85
2018-10-09T04:02:10.849Z,78.63
2018-10-09T04:04:39.687Z,78.22
2018-10-09T04:07:08.554Z,78.49
2018-10-09T04:09:37.473Z,78.21
2018-10-09T04:12:06.383Z,78.46
2018-10-09T04:14:35.306Z,78.26
2018-10-09T04:17:04.199Z,78.95
2018-10-09T04:19:33.085Z,78.84
2018-10-09T04:22:01.897Z,79.08
2018-10-09T04:24:30.733Z,79.02
2018-10-09T04:26:59.509Z,78.87
2018-10-09T04:29:28.501Z,78.81
2018-10-09T04:31:57.281Z,78.93
2018-10-09T04:34:26.072Z,79.01
2018-10-09T04:36:54.914Z,78.56
2018-10-09T04:39:23.806Z,79.26
2018-10-09T04:41:52.582Z,79.21
2018-10-09T04:44:21.387Z,78.87
2018-10-09T04:46:57.386Z,78.64
2018-10-09T04:49:32.659Z,78.92
2018-10-09T04:52:07.090Z,78.73
2018-10-09T04:54:43.235Z,79.20
2018-10-09T04:57:17.903Z,79.17
2018-10-09T04:59:49.307Z,79.06
2018-10-09T05:02:18.118Z,78.59
2018-10-09T05:04:47.224Z,78.76
2018-10-09T05:07:16.204Z,79.20
2018-10-09T05:09:44.963Z,79.04
2018-10-09T05:12:13.818Z,78.46
2018-10-09T05:14:42.678Z,78.99
2018-10-09T05:17:11.593Z,79.22
2018-10-09T05:19:40.369Z,79.32
2018-10-09T05:22:09.321Z,78.93
2018-10-09T05:24:38.128Z,78.68
2018-10-09T05:27:07.052Z,78.28
2018-10-09T05:29:35.926Z,78.08
2018-10-09T05:32:04.967Z,78.21
2018-10-09T05:34:33.879Z,78.59
2018-10-09T05:37:02.725Z,78.51
2018-10-09T05:39:31.650Z,78.25
2018-10-09T05:42:00.570Z,78.45
2018-10-09T05:44:29.524Z,78.95
2018-10-09T05:46:58.426Z,78.87
2018-10-09T05:49:27.286Z,78.25
2018-10-09T05:51:56.165Z,78.53
2018-10-09T05:54:25.026Z,78.39
2018-10-09T05:56:53.830Z,78.32
2018-10-09T05:59:22.680Z,78.23
2018-10-09T06:01:51.454Z,77.39
2018-10-09T06:04:20.353Z,77.01
2018-10-09T06:06:49.435Z,77.11
2018-10-09T06:09:18.303Z,76.57
2018-10-09T06:11:47.490Z,76.36
2018-10-09T06:14:16.498Z,76.38
2018-10-09T06:16:45.782Z,75.63
2018-10-09T06:19:14.680Z,74.73
2018-10-09T06:21:43.553Z,73.96
2018-10-09T06:24:12.498Z,74.04
2018-10-09T06:26:41.660Z,73.65
2018-10-09T06:29:10.905Z,72.95
2018-10-09T06:31:39.941Z,72.90
2018-10-09T06:34:10.861Z,72.63
2018-10-09T06:36:39.947Z,72.67
2018-10-09T06:39:12.799Z,72.57
2018-10-09T06:41:43.028Z,72.82
2018-10-09T06:44:19.117Z,72.61
2018-10-09T06:46:52.491Z,72.30
2018-10-09T06:49:24.050Z,72.12
2018-10-09T06:51:55.498Z,71.80
2018-10-09T06:54:27.826Z,71.73
2018-10-09T06:57:03.948Z,70.65
2018-10-09T06:59:35.561Z,71.32
2018-10-09T07:02:06.676Z,69.55
2018-10-09T07:04:38.120Z,66.86
2018-10-09T07:07:07.718Z,67.14
2018-10-09T07:09:41.202Z,65.49
2018-10-09T07:12:14.962Z,65.30
2018-10-09T07:14:47.539Z,65.47
2018-10-09T07:17:18.248Z,64.49
2018-10-09T07:19:48.957Z,63.81
2018-10-09T07:22:21.249Z,62.64
2018-10-09T07:24:50.520Z,62.36
2018-10-09T07:27:21.234Z,59.05
2018-10-09T07:29:50.292Z,58.46
2018-10-09T07:32:20.408Z,58.64
2018-10-09T07:34:50.378Z,56.34
2018-10-09T07:40:09.408Z,56.88
2018-10-09T07:42:38.537Z,57.34
2018-10-09T07:45:07.661Z,57.20
2018-10-09T07:47:37.177Z,58.03
2018-10-09T07:50:07.747Z,57.85
2018-10-09T07:52:36.639Z,57.28
2018-10-09T07:55:06.094Z,57.19
2018-10-09T07:57:35.431Z,57.41
2018-10-09T08:00:04.768Z,56.94
2018-10-09T08:02:34.012Z,56.35
2018-10-09T08:05:03.749Z,56.13
2018-10-09T08:07:34.554Z,55.37
2018-10-09T08:10:04.728Z,53.84
2018-10-09T08:12:35.590Z,52.21
2018-10-09T08:15:05.111Z,52.20
2018-10-09T08:17:35.228Z,52.79
2018-10-09T08:20:05.302Z,54.31
2018-10-09T08:22:34.783Z,54.70
2018-10-09T08:25:03.896Z,54.92
2018-10-09T08:27:34.057Z,55.96
2018-10-09T08:30:03.384Z,56.28
2018-10-09T08:32:32.449Z,54.87
2018-10-09T08:35:01.570Z,55.81
2018-10-09T08:37:31.775Z,55.91
2018-10-09T08:40:00.989Z,55.64
2018-10-09T08:42:30.857Z,55.16
2018-10-09T08:44:59.816Z,54.48
2018-10-09T08:47:28.663Z,54.77
2018-10-09T08:49:58.048Z,54.32
2018-10-09T08:52:27.958Z,54.21
2018-10-09T08:55:08.206Z,52.08
2018-10-09T08:57:38.252Z,52.69
2018-10-09T09:00:08.310Z,53.20
2018-10-09T09:02:37.370Z,52.53
2018-10-09T09:05:07.035Z,51.72
2018-10-09T09:07:36.663Z,52.18
2018-10-09T09:10:06.090Z,52.97
2018-10-09T09:12:34.989Z,52.43
2018-10-09T09:15:04.385Z,52.09
2018-10-09T09:17:33.317Z,50.67
2018-10-09T09:20:02.187Z,50.72
2018-10-09T09:22:36.063Z,49.07
2018-10-09T09:25:05.199Z,48.58
2018-10-09T09:27:34.159Z,46.24
2018-10-09T09:30:03.340Z,46.53
2018-10-09T09:32:32.735Z,46.43
2018-10-09T09:35:06.217Z,45.42
2018-10-09T09:37:35.416Z,44.96
2018-10-09T09:40:09.314Z,45.88
2018-10-09T09:42:43.443Z,46.28
2018-10-09T09:45:16.302Z,46.32
2018-10-09T09:47:46.043Z,45.44
2018-10-09T09:50:14.909Z,44.21
2018-10-09T09:52:44.592Z,42.96
2018-10-09T09:55:13.451Z,43.44
2018-10-09T09:57:42.990Z,42.60
2018-10-09T10:00:17.765Z,43.94
2018-10-09T10:02:48.243Z,44.38
2018-10-09T10:05:17.329Z,45.24
2018-10-09T10:07:46.235Z,45.05
2018-10-09T10:10:15.892Z,44.44
2018-10-09T10:12:45.898Z,44.75
2018-10-09T10:15:15.669Z,44.79
2018-10-09T10:17:45.088Z,44.32
2018-10-09T10:20:14.910Z,43.87
2018-10-09T10:22:45.093Z,42.31
2018-10-09T10:25:14.096Z,42.50
2018-10-09T10:27:42.928Z,43.37
2018-10-09T10:30:14.399Z,41.93
2018-10-09T10:32:43.327Z,40.88
2018-10-09T10:35:12.294Z,40.24
2018-10-09T10:37:43.991Z,41.37
2018-10-09T10:40:13.243Z,41.26
2018-10-09T10:42:42.981Z,39.94
2018-10-09T10:45:12.116Z,40.89
2018-10-09T10:47:42.201Z,41.66
2018-10-09T10:50:11.506Z,42.47
2018-10-09T10:52:40.779Z,42.13
2018-10-09T10:55:11.280Z,41.29
2018-10-09T10:57:41.446Z,40.83
2018-10-09T11:00:11.351Z,39.99
2018-10-09T11:02:40.625Z,39.68
2018-10-09T11:05:11.068Z,39.77
2018-10-09T11:07:40.209Z,39.40
2018-10-09T11:10:10.437Z,38.63
2018-10-09T11:12:39.412Z,40.16
2018-10-09T11:15:08.263Z,40.32
2018-10-09T11:17:37.477Z,39.61
2018-10-09T11:20:06.628Z,39.11
2018-10-09T11:22:36.747Z,38.36
2018-10-09T11:25:08.471Z,38.36
2018-10-09T11:30:29.702Z,38.83
2018-10-09T11:32:59.594Z,39.59
2018-10-09T11:35:29.124Z,39.89
2018-10-09T11:37:58.310Z,39.57
2018-10-09T11:40:27.715Z,37.79
2018-10-09T11:42:57.240Z,38.52
2018-10-09T11:45:27.729Z,38.09
2018-10-09T11:47:57.060Z,39.00
2018-10-09T11:50:26.412Z,37.57
2018-10-09T11:52:55.401Z,36.95
2018-10-09T11:55:24.696Z,36.95
2018-10-09T11:57:54.285Z,36.65
2018-10-09T12:00:23.647Z,36.67
2018-10-09T12:02:52.854Z,35.58
2018-10-09T12:05:26.576Z,36.52
2018-10-09T12:07:55.789Z,36.17
2018-10-09T12:10:27.581Z,35.67
2018-10-09T12:13:03.573Z,37.02
2018-10-09T12:15:34.505Z,36.64
2018-10-09T12:18:03.729Z,36.45
2018-10-09T12:20:32.872Z,36.66
2018-10-09T12:23:01.932Z,37.14
2018-10-09T12:25:31.435Z,36.56
2018-10-09T12:28:01.471Z,35.78
2018-10-09T12:30:32.065Z,34.75
2018-10-09T12:33:02.136Z,34.41
2018-10-09T12:35:31.037Z,33.87
2018-10-09T12:38:01.568Z,34.84
2018-10-09T12:40:31.053Z,35.09
2018-10-09T12:42:59.963Z,35.64
2018-10-09T12:45:29.127Z,34.76
2018-10-09T12:47:58.139Z,37.08
2018-10-09T12:50:27.159Z,37.20
2018-10-09T12:52:56.346Z,38.04
2018-10-09T12:55:25.990Z,38.38
2018-10-09T12:57:54.946Z,38.33
2018-10-09T13:00:24.043Z,38.10
2018-10-09T13:02:53.038Z,36.86
2018-10-09T13:05:21.919Z,36.75
2018-10-09T13:07:51.611Z,36.42
2018-10-09T13:10:20.658Z,37.81
2018-10-09T13:12:49.805Z,37.83
2018-10-09T13:15:18.819Z,37.88
2018-10-09T13:17:53.460Z,37.74
2018-10-09T13:20:22.335Z,36.93
2018-10-09T13:22:52.788Z,37.13
2018-10-09T13:25:21.638Z,36.44
2018-10-09T13:27:50.698Z,35.32
2018-10-09T13:30:25.003Z,36.37
2018-10-09T13:33:00.459Z,36.52
2018-10-09T13:35:31.257Z,36.52
2018-10-09T13:38:00.919Z,35.44
2018-10-09T13:40:34.207Z,35.59
2018-10-09T13:43:03.247Z,35.31
2018-10-09T13:45:32.979Z,35.43
2018-10-09T13:48:02.030Z,34.85
2018-10-09T13:50:31.172Z,35.53
2018-10-09T13:53:00.088Z,36.65
2018-10-09T13:55:28.968Z,36.08
2018-10-09T13:57:58.106Z,35.65
2018-10-09T14:00:27.016Z,35.62
2018-10-09T14:02:56.257Z,35.74
2018-10-09T14:05:25.327Z,35.51
2018-10-09T14:07:56.149Z,36.16
2018-10-09T14:10:25.259Z,36.26
2018-10-09T14:12:54.799Z,36.38
2018-10-09T14:15:25.286Z,38.03
2018-10-09T14:17:54.495Z,38.51
2018-10-09T14:20:23.882Z,38.19
2018-10-09T14:22:54.849Z,38.42
2018-10-09T14:25:23.547Z,38.88
2018-10-09T14:27:52.598Z,39.58
2018-10-09T14:30:33.852Z,39.19
2018-10-09T14:33:18.452Z,39.89
2018-10-09T14:35:47.948Z,39.41
2018-10-09T14:38:16.873Z,38.85
2018-10-09T14:40:45.840Z,39.48
2018-10-09T14:43:14.834Z,39.67
2018-10-09T14:45:43.709Z,40.08
2018-10-09T14:48:12.723Z,40.45
2018-10-09T14:50:41.630Z,40.39
2018-10-09T14:53:10.510Z,41.14
2018-10-09T14:55:39.372Z,40.77
2018-10-09T14:58:08.313Z,40.72
2018-10-09T15:00:37.218Z,41.47
2018-10-09T15:03:07.274Z,41.58
2018-10-09T15:05:36.128Z,41.43
2018-10-09T15:08:05.020Z,42.10
2018-10-09T15:10:33.860Z,42.51
2018-10-09T15:13:03.071Z,42.96
2018-10-09T15:15:32.291Z,42.30
2018-10-09T15:21:08.877Z,43.22
2018-10-09T15:23:39.067Z,43.98
2018-10-09T15:26:08.400Z,45.08
2018-10-09T15:31:13.038Z,46.31
2018-10-09T15:33:41.637Z,46.36
2018-10-09T15:36:10.157Z,46.67
2018-10-09T15:38:38.746Z,46.91
2018-10-09T15:41:07.958Z,47.52
2018-10-09T15:43:36.553Z,47.99
2018-10-09T15:46:07.980Z,47.77
2018-10-09T15:48:36.867Z,48.73
2018-10-09T15:51:05.507Z,48.34
2018-10-09T15:53:34.648Z,49.33
2018-10-09T15:56:03.815Z,49.10
2018-10-09T15:58:32.582Z,49.61
2018-10-09T16:01:01.192Z,49.25
2018-10-09T16:03:30.100Z,50.12
2018-10-09T16:05:58.959Z,51.16
2018-10-09T16:08:28.634Z,51.22
2018-10-09T16:10:57.494Z,51.41
2018-10-09T16:16:18.714Z,52.08
2018-10-09T16:18:48.130Z,52.22
2018-10-09T16:21:19.055Z,52.67
2018-10-09T16:23:49.415Z,53.33
2018-10-09T16:26:18.295Z,53.73
2018-10-09T16:28:47.275Z,54.46
2018-10-09T16:31:16.333Z,55.34
2018-10-09T16:33:45.270Z,55.35
2018-10-09T16:36:14.253Z,55.37
2018-10-09T16:38:43.241Z,56.12
2018-10-09T16:41:12.182Z,56.82
2018-10-09T16:43:41.103Z,57.19
2018-10-09T16:46:10.038Z,57.56
2018-10-09T16:48:38.951Z,57.68
2018-10-09T16:51:07.941Z,58.14
2018-10-09T16:53:37.238Z,58.14
2018-10-09T16:56:06.740Z,58.06
2018-10-09T16:58:36.395Z,58.19
2018-10-09T17:01:05.353Z,59.05
2018-10-09T17:03:34.415Z,60.45
2018-10-09T17:06:03.371Z,60.27
2018-10-09T17:08:32.527Z,61.22
2018-10-09T17:11:02.409Z,61.10
2018-10-09T17:13:31.411Z,61.33
2018-10-09T17:16:00.807Z,61.08
2018-10-09T17:18:29.832Z,61.81
2018-10-09T17:21:02.712Z,62.65
2018-10-09T17:23:32.041Z,62.03
2018-10-09T17:26:01.260Z,62.42
2018-10-09T17:28:30.468Z,62.76
2018-10-09T17:30:59.314Z,61.88
2018-10-09T17:33:28.986Z,62.38
2018-10-09T17:35:57.909Z,62.37
2018-10-09T17:38:26.864Z,62.74
2018-10-09T17:40:55.839Z,63.64
2018-10-09T17:43:24.762Z,64.30
2018-10-09T17:45:53.492Z,63.75
2018-10-09T17:48:22.474Z,64.51
2018-10-09T17:50:51.402Z,65.23
2018-10-09T17:53:20.295Z,65.27
2018-10-09T17:55:49.222Z,66.15
2018-10-09T17:58:18.157Z,66.41
2018-10-09T18:00:47.466Z,66.11
2018-10-09T18:03:16.618Z,66.49
2018-10-09T18:05:45.701Z,67.05
2018-10-09T18:08:14.751Z,66.93
2018-10-09T18:10:43.720Z,67.59
2018-10-09T18:13:12.633Z,68.11
2018-10-09T18:15:41.483Z,68.11
2018-10-09T18:18:10.394Z,68.19
2018-10-09T18:20:39.345Z,67.96
2018-10-09T18:23:08.817Z,68.45
2018-10-09T18:25:37.704Z,68.68
2018-10-09T18:28:07.107Z,68.82
2018-10-09T18:30:36.012Z,69.39
2018-10-09T18:33:05.034Z,69.35
2018-10-09T18:35:34.210Z,70.06
2018-10-09T18:38:03.066Z,70.46
2018-10-09T18:40:32.417Z,70.55
2018-10-09T18:43:01.308Z,70.45
2018-10-09T18:45:30.250Z,70.67
2018-10-09T18:47:59.125Z,70.01
2018-10-09T18:50:28.031Z,70.84
2018-10-09T18:52:59.850Z,70.90
2018-10-09T18:55:31.689Z,70.90
2018-10-09T18:58:00.654Z,71.37
2018-10-09T19:00:31.317Z,71.43
2018-10-09T19:03:00.420Z,71.72
2018-10-09T19:05:29.551Z,72.08
2018-10-09T19:07:58.677Z,71.66
2018-10-09T19:10:33.122Z,72.57
2018-10-09T19:13:02.622Z,71.80
2018-10-09T19:15:32.135Z,72.89
2018-10-09T19:18:01.125Z,72.19
2018-10-09T19:20:32.138Z,73.17
2018-10-09T19:23:03.898Z,72.76
2018-10-09T19:25:37.023Z,73.18
2018-10-09T19:28:07.840Z,73.26
2018-10-09T19:30:40.354Z,72.71
2018-10-09T19:33:16.044Z,73.84
2018-10-09T19:35:45.020Z,73.50
2018-10-09T19:38:16.118Z,73.82
2018-10-09T19:40:50.796Z,73.80
2018-10-09T19:43:23.360Z,73.92
2018-10-09T19:46:05.575Z,73.60
2018-10-09T19:48:35.144Z,74.48
2018-10-09T19:51:04.336Z,74.49
2018-10-09T19:56:48.547Z,74.59
2018-10-09T19:59:39.716Z,74.64
2018-10-09T20:02:37.633Z,74.89
2018-10-09T20:05:23.590Z,75.00
2018-10-09T20:10:59.109Z,74.96
2018-10-09T20:13:36.855Z,75.13
2018-10-09T20:16:30.746Z,74.55
2018-10-09T20:19:13.988Z,74.87
2018-10-09T20:21:45.391Z,75.07
2018-10-09T20:24:14.690Z,74.82
2018-10-09T20:26:44.462Z,75.06
2018-10-09T20:29:13.896Z,74.92
2018-10-09T20:31:43.773Z,74.78
2018-10-09T20:34:13.703Z,74.17
2018-10-09T20:36:46.069Z,74.93
2018-10-09T20:39:18.087Z,74.66
2018-10-09T20:41:47.509Z,74.95
2018-10-09T20:44:16.484Z,75.17
2018-10-09T20:46:45.717Z,74.58
2018-10-09T20:49:17.747Z,74.47
2018-10-09T20:51:48.188Z,74.75
2018-10-09T20:54:17.582Z,74.68
2018-10-09T20:56:47.613Z,75.07
2018-10-09T20:59:17.696Z,75.18
2018-10-09T21:01:46.808Z,75.49
2018-10-09T21:04:16.754Z,75.81
2018-10-09T21:06:47.619Z,75.59
2018-10-09T21:09:18.060Z,76.63
2018-10-09T21:11:54.761Z,76.47
2018-10-09T21:14:24.769Z,76.55
2018-10-09T21:16:53.718Z,76.57
2018-10-09T21:19:27.564Z,76.44
2018-10-09T21:22:00.575Z,76.66
2018-10-09T21:24:30.447Z,76.75
2018-10-09T21:27:00.581Z,76.84
2018-10-09T21:29:32.668Z,76.67
2018-10-09T21:32:02.728Z,76.37
2018-10-09T21:34:34.514Z,76.58
2018-10-09T21:37:04.133Z,76.45
2018-10-09T21:39:33.474Z,76.96
2018-10-09T21:42:04.322Z,77.22
2018-10-09T21:44:33.746Z,77.23
2018-10-09T21:47:02.771Z,76.93
2018-10-09T21:49:33.218Z,77.30
2018-10-09T21:52:08.251Z,77.10
2018-10-09T21:54:39.855Z,76.92
2018-10-09T21:57:09.052Z,76.68
2018-10-09T21:59:38.293Z,76.56
2018-10-09T22:02:09.314Z,76.54
2018-10-09T22:04:39.582Z,76.55
2018-10-09T22:07:12.926Z,76.73
2018-10-09T22:09:46.567Z,77.21
2018-10-09T22:12:18.797Z,78.64
2018-10-09T22:14:49.461Z,77.81
2018-10-09T22:17:23.040Z,77.11
2018-10-09T22:19:51.801Z,77.16
2018-10-09T22:22:20.849Z,77.15
2018-10-09T22:24:49.695Z,77.18
2018-10-09T22:27:19.194Z,77.22
2018-10-09T22:29:48.992Z,77.94
2018-10-09T22:32:18.259Z,77.44
2018-10-09T22:34:47.957Z,77.46
2018-10-09T22:37:17.026Z,77.98
2018-10-09T22:39:45.960Z,78.14
2018-10-09T22:42:16.507Z,78.53
2018-10-09T22:44:47.268Z,78.24
2018-10-09T22:47:16.302Z,78.08
2018-10-09T22:49:45.224Z,78.17
2018-10-09T22:52:14.199Z,79.15
2018-10-09T22:54:43.099Z,78.79
2018-10-09T22:57:12.177Z,79.10
2018-10-09T22:59:46.474Z,78.88
2018-10-09T23:02:28.395Z,78.83
2018-10-09T23:04:57.201Z,77.83
2018-10-09T23:07:26.031Z,77.50
2018-10-09T23:09:54.874Z,77.86
2018-10-09T23:12:23.719Z,77.18
2018-10-09T23:14:53.488Z,77.42
2018-10-09T23:17:22.274Z,77.69
2018-10-09T23:19:51.204Z,77.80
2018-10-09T23:22:19.920Z,77.27
2018-10-09T23:24:48.849Z,77.69
2018-10-09T23:27:17.741Z,77.40
2018-10-09T23:29:48.401Z,78.37
2018-10-09T23:32:17.177Z,79.16
2018-10-09T23:34:46.016Z,79.73
2018-10-09T23:37:14.901Z,79.49
2018-10-09T23:39:43.771Z,78.93
2018-10-09T23:42:12.737Z,79.25
2018-10-09T23:44:41.843Z,79.54
2018-10-09T23:47:11.182Z,79.21
2018-10-09T23:49:40.040Z,79.17
2018-10-09T23:52:08.902Z,78.79
2018-10-09T23:54:37.838Z,78.10
2018-10-09T23:57:06.726Z,78.70
2018-10-09T23:59:35.522Z,79.11
